sensor_id;sensor_type;location;lat;lon;timestamp;temperature;humidity
15386;DHT22;7791;47.246;9.648;2022-08-04T00:00:09;21.90;99.90
15386;DHT22;7791;47.246;9.648;2022-08-04T00:02:42;22.00;99.90
15386;DHT22;7791;47.246;9.648;2022-08-04T00:05:19;22.20;99.90
15386;DHT22;7791;47.246;9.648;2022-08-04T00:07:52;22.20;99.90
15386;DHT22;7791;47.246;9.648;2022-08-04T00:10:21;22.30;99.90
15386;DHT22;7791;47.246;9.648;2022-08-04T00:12:50;22.30;99.90
15386;DHT22;7791;47.246;9.648;2022-08-04T00:15:17;22.40;99.90
15386;DHT22;7791;47.246;9.648;2022-08-04T00:17:45;22.40;99.90
15386;DHT22;7791;47.246;9.648;2022-08-04T00:20:14;22.50;99.90
15386;DHT22;7791;47.246;9.648;2022-08-04T00:22:44;22.50;99.90
15386;DHT22;7791;47.246;9.648;2022-08-04T00:25:31;22.40;99.90
15386;DHT22;7791;47.246;9.648;2022-08-04T00:28:00;22.30;99.90
15386;DHT22;7791;47.246;9.648;2022-08-04T00:30:26;22.20;99.90
15386;DHT22;7791;47.246;9.648;2022-08-04T00:32:52;22.10;99.90
15386;DHT22;7791;47.246;9.648;2022-08-04T00:35:18;22.00;99.90
15386;DHT22;7791;47.246;9.648;2022-08-04T00:37:45;22.00;99.90
15386;DHT22;7791;47.246;9.648;2022-08-04T00:40:21;21.90;99.90
15386;DHT22;7791;47.246;9.648;2022-08-04T00:42:53;21.90;99.90
15386;DHT22;7791;47.246;9.648;2022-08-04T00:45:43;21.90;99.90
15386;DHT22;7791;47.246;9.648;2022-08-04T00:48:23;22.00;99.90
15386;DHT22;7791;47.246;9.648;2022-08-04T00:51:02;22.00;99.90
15386;DHT22;7791;47.246;9.648;2022-08-04T00:53:39;22.10;99.90
15386;DHT22;7791;47.246;9.648;2022-08-04T00:56:25;22.30;99.90
15386;DHT22;7791;47.246;9.648;2022-08-04T00:59:06;22.40;99.90
15386;DHT22;7791;47.246;9.648;2022-08-04T01:01:50;22.30;99.90
15386;DHT22;7791;47.246;9.648;2022-08-04T01:04:26;22.30;99.90
15386;DHT22;7791;47.246;9.648;2022-08-04T01:07:08;22.20;99.90
15386;DHT22;7791;47.246;9.648;2022-08-04T01:09:45;22.10;99.90
15386;DHT22;7791;47.246;9.648;2022-08-04T01:12:31;22.00;99.90
15386;DHT22;7791;47.246;9.648;2022-08-04T01:15:05;21.90;99.90
15386;DHT22;7791;47.246;9.648;2022-08-04T01:17:50;21.80;99.90
15386;DHT22;7791;47.246;9.648;2022-08-04T01:20:20;21.80;99.90
15386;DHT22;7791;47.246;9.648;2022-08-04T01:26:38;21.80;99.90
15386;DHT22;7791;47.246;9.648;2022-08-04T01:29:10;21.60;99.90
15386;DHT22;7791;47.246;9.648;2022-08-04T01:31:56;21.30;99.90
15386;DHT22;7791;47.246;9.648;2022-08-04T01:34:27;21.00;99.90
15386;DHT22;7791;47.246;9.648;2022-08-04T01:36:59;20.60;99.90
15386;DHT22;7791;47.246;9.648;2022-08-04T01:39:33;20.50;99.90
15386;DHT22;7791;47.246;9.648;2022-08-04T01:42:01;20.40;99.90
15386;DHT22;7791;47.246;9.648;2022-08-04T01:44:30;20.40;99.90
15386;DHT22;7791;47.246;9.648;2022-08-04T01:46:56;20.80;99.90
15386;DHT22;7791;47.246;9.648;2022-08-04T01:49:27;20.90;99.90
15386;DHT22;7791;47.246;9.648;2022-08-04T01:51:55;20.90;99.90
15386;DHT22;7791;47.246;9.648;2022-08-04T01:54:22;20.70;99.90
15386;DHT22;7791;47.246;9.648;2022-08-04T01:56:49;20.50;99.90
15386;DHT22;7791;47.246;9.648;2022-08-04T01:59:18;20.40;99.90
15386;DHT22;7791;47.246;9.648;2022-08-04T02:01:45;20.20;99.90
15386;DHT22;7791;47.246;9.648;2022-08-04T02:04:13;20.00;99.90
15386;DHT22;7791;47.246;9.648;2022-08-04T02:06:47;20.00;99.90
15386;DHT22;7791;47.246;9.648;2022-08-04T02:09:21;20.10;99.90
15386;DHT22;7791;47.246;9.648;2022-08-04T02:11:56;20.20;99.90
15386;DHT22;7791;47.246;9.648;2022-08-04T02:14:28;20.40;99.90
15386;DHT22;7791;47.246;9.648;2022-08-04T02:16:56;20.40;99.90
15386;DHT22;7791;47.246;9.648;2022-08-04T02:19:29;20.50;99.90
15386;DHT22;7791;47.246;9.648;2022-08-04T02:22:02;20.70;99.90
15386;DHT22;7791;47.246;9.648;2022-08-04T02:24:31;20.80;99.90
15386;DHT22;7791;47.246;9.648;2022-08-04T02:27:02;20.90;99.90
15386;DHT22;7791;47.246;9.648;2022-08-04T02:29:33;20.90;99.90
15386;DHT22;7791;47.246;9.648;2022-08-04T02:32:03;20.80;99.90
15386;DHT22;7791;47.246;9.648;2022-08-04T02:34:33;20.70;99.90
15386;DHT22;7791;47.246;9.648;2022-08-04T02:37:03;20.60;99.90
15386;DHT22;7791;47.246;9.648;2022-08-04T02:39:32;20.50;99.90
15386;DHT22;7791;47.246;9.648;2022-08-04T02:41:58;20.40;99.90
15386;DHT22;7791;47.246;9.648;2022-08-04T02:44:27;20.40;99.90
15386;DHT22;7791;47.246;9.648;2022-08-04T02:46:54;20.40;99.90
15386;DHT22;7791;47.246;9.648;2022-08-04T02:49:22;20.50;99.90
15386;DHT22;7791;47.246;9.648;2022-08-04T02:51:50;20.50;99.90
15386;DHT22;7791;47.246;9.648;2022-08-04T02:54:19;20.50;99.90
15386;DHT22;7791;47.246;9.648;2022-08-04T02:57:23;20.40;99.90
15386;DHT22;7791;47.246;9.648;2022-08-04T03:00:04;20.30;99.90
15386;DHT22;7791;47.246;9.648;2022-08-04T03:02:41;20.20;99.90
15386;DHT22;7791;47.246;9.648;2022-08-04T03:05:16;20.20;99.90
15386;DHT22;7791;47.246;9.648;2022-08-04T03:08:10;20.10;99.90
15386;DHT22;7791;47.246;9.648;2022-08-04T03:14:17;19.80;99.90
15386;DHT22;7791;47.246;9.648;2022-08-04T03:17:19;19.70;99.90
15386;DHT22;7791;47.246;9.648;2022-08-04T03:20:11;19.70;99.90
15386;DHT22;7791;47.246;9.648;2022-08-04T03:23:06;19.90;99.90
15386;DHT22;7791;47.246;9.648;2022-08-04T03:25:49;20.20;99.90
15386;DHT22;7791;47.246;9.648;2022-08-04T03:28:41;20.40;99.90
15386;DHT22;7791;47.246;9.648;2022-08-04T03:34:41;20.60;99.90
15386;DHT22;7791;47.246;9.648;2022-08-04T03:40:38;20.60;99.90
15386;DHT22;7791;47.246;9.648;2022-08-04T03:46:42;20.20;99.90
15386;DHT22;7791;47.246;9.648;2022-08-04T03:52:42;20.20;99.90
15386;DHT22;7791;47.246;9.648;2022-08-04T03:55:36;20.20;99.90
15386;DHT22;7791;47.246;9.648;2022-08-04T04:01:20;20.10;99.90
15386;DHT22;7791;47.246;9.648;2022-08-04T04:04:08;20.20;99.90
15386;DHT22;7791;47.246;9.648;2022-08-04T04:06:48;20.10;99.90
15386;DHT22;7791;47.246;9.648;2022-08-04T04:12:14;20.20;99.90
15386;DHT22;7791;47.246;9.648;2022-08-04T04:14:57;20.40;99.90
15386;DHT22;7791;47.246;9.648;2022-08-04T04:23:30;20.30;99.90
15386;DHT22;7791;47.246;9.648;2022-08-04T04:29:16;20.20;99.90
15386;DHT22;7791;47.246;9.648;2022-08-04T04:31:55;20.10;99.90
15386;DHT22;7791;47.246;9.648;2022-08-04T04:34:32;20.00;99.90
15386;DHT22;7791;47.246;9.648;2022-08-04T04:37:17;19.60;99.90
15386;DHT22;7791;47.246;9.648;2022-08-04T04:39:54;19.60;99.90
15386;DHT22;7791;47.246;9.648;2022-08-04T04:42:49;19.40;99.90
15386;DHT22;7791;47.246;9.648;2022-08-04T04:45:24;19.40;99.90
15386;DHT22;7791;47.246;9.648;2022-08-04T04:47:57;19.30;99.90
15386;DHT22;7791;47.246;9.648;2022-08-04T04:50:31;19.40;99.90
15386;DHT22;7791;47.246;9.648;2022-08-04T04:53:06;19.50;99.90
15386;DHT22;7791;47.246;9.648;2022-08-04T04:55:40;19.70;99.90
15386;DHT22;7791;47.246;9.648;2022-08-04T04:58:11;19.80;99.90
15386;DHT22;7791;47.246;9.648;2022-08-04T05:00:51;19.90;99.90
15386;DHT22;7791;47.246;9.648;2022-08-04T05:03:34;20.10;99.90
15386;DHT22;7791;47.246;9.648;2022-08-04T05:06:12;20.10;99.90
15386;DHT22;7791;47.246;9.648;2022-08-04T05:08:50;20.20;99.90
15386;DHT22;7791;47.246;9.648;2022-08-04T05:14:32;20.30;99.90
15386;DHT22;7791;47.246;9.648;2022-08-04T05:17:03;20.40;99.90
15386;DHT22;7791;47.246;9.648;2022-08-04T05:19:38;20.40;99.90
15386;DHT22;7791;47.246;9.648;2022-08-04T05:22:11;20.40;99.90
15386;DHT22;7791;47.246;9.648;2022-08-04T05:24:42;20.40;99.90
15386;DHT22;7791;47.246;9.648;2022-08-04T05:27:13;20.50;99.90
15386;DHT22;7791;47.246;9.648;2022-08-04T05:29:45;20.60;99.90
15386;DHT22;7791;47.246;9.648;2022-08-04T05:32:14;20.70;99.90
15386;DHT22;7791;47.246;9.648;2022-08-04T05:34:42;20.70;99.90
15386;DHT22;7791;47.246;9.648;2022-08-04T05:37:14;20.90;99.90
15386;DHT22;7791;47.246;9.648;2022-08-04T05:39:44;20.90;99.90
15386;DHT22;7791;47.246;9.648;2022-08-04T05:42:11;20.80;99.90
15386;DHT22;7791;47.246;9.648;2022-08-04T05:44:39;21.10;99.90
15386;DHT22;7791;47.246;9.648;2022-08-04T05:47:05;22.10;99.90
15386;DHT22;7791;47.246;9.648;2022-08-04T05:49:34;23.70;99.90
15386;DHT22;7791;47.246;9.648;2022-08-04T05:52:02;25.10;99.90
15386;DHT22;7791;47.246;9.648;2022-08-04T05:54:30;26.20;99.90
15386;DHT22;7791;47.246;9.648;2022-08-04T05:56:57;27.20;99.90
15386;DHT22;7791;47.246;9.648;2022-08-04T05:59:24;28.00;99.90
15386;DHT22;7791;47.246;9.648;2022-08-04T06:01:54;28.60;99.90
15386;DHT22;7791;47.246;9.648;2022-08-04T06:04:21;29.30;99.90
15386;DHT22;7791;47.246;9.648;2022-08-04T06:06:49;30.00;98.40
15386;DHT22;7791;47.246;9.648;2022-08-04T06:09:15;30.60;97.30
15386;DHT22;7791;47.246;9.648;2022-08-04T06:11:42;31.30;96.40
15386;DHT22;7791;47.246;9.648;2022-08-04T06:14:12;32.00;95.30
15386;DHT22;7791;47.246;9.648;2022-08-04T06:16:40;32.50;94.40
15386;DHT22;7791;47.246;9.648;2022-08-04T06:19:10;33.00;92.90
15386;DHT22;7791;47.246;9.648;2022-08-04T06:21:38;33.10;92.60
15386;DHT22;7791;47.246;9.648;2022-08-04T06:24:09;33.30;92.30
15386;DHT22;7791;47.246;9.648;2022-08-04T06:26:37;33.80;91.40
15386;DHT22;7791;47.246;9.648;2022-08-04T06:29:03;34.30;90.00
15386;DHT22;7791;47.246;9.648;2022-08-04T06:31:32;34.60;89.20
15386;DHT22;7791;47.246;9.648;2022-08-04T06:34:01;34.60;89.20
15386;DHT22;7791;47.246;9.648;2022-08-04T06:36:28;34.60;88.50
15386;DHT22;7791;47.246;9.648;2022-08-04T06:38:55;34.90;86.80
15386;DHT22;7791;47.246;9.648;2022-08-04T06:41:23;35.00;87.30
15386;DHT22;7791;47.246;9.648;2022-08-04T06:43:50;35.40;85.80
15386;DHT22;7791;47.246;9.648;2022-08-04T06:46:17;35.10;85.60
15386;DHT22;7791;47.246;9.648;2022-08-04T06:48:43;34.50;86.50
15386;DHT22;7791;47.246;9.648;2022-08-04T06:51:10;34.40;87.00
15386;DHT22;7791;47.246;9.648;2022-08-04T06:53:37;34.90;84.30
15386;DHT22;7791;47.246;9.648;2022-08-04T06:56:04;35.50;84.00
15386;DHT22;7791;47.246;9.648;2022-08-04T06:58:32;36.30;82.80
15386;DHT22;7791;47.246;9.648;2022-08-04T07:00:59;36.40;79.30
15386;DHT22;7791;47.246;9.648;2022-08-04T07:03:25;35.10;82.80
15386;DHT22;7791;47.246;9.648;2022-08-04T07:05:51;33.90;86.90
15386;DHT22;7791;47.246;9.648;2022-08-04T07:08:18;34.50;84.80
15386;DHT22;7791;47.246;9.648;2022-08-04T07:10:44;35.10;81.70
15386;DHT22;7791;47.246;9.648;2022-08-04T07:13:11;35.00;83.20
15386;DHT22;7791;47.246;9.648;2022-08-04T07:15:40;34.30;86.40
15386;DHT22;7791;47.246;9.648;2022-08-04T07:18:06;34.50;86.70
15386;DHT22;7791;47.246;9.648;2022-08-04T07:20:32;35.80;83.60
15386;DHT22;7791;47.246;9.648;2022-08-04T07:22:59;36.90;78.50
15386;DHT22;7791;47.246;9.648;2022-08-04T07:25:25;37.70;77.40
15386;DHT22;7791;47.246;9.648;2022-08-04T07:27:51;38.30;73.40
15386;DHT22;7791;47.246;9.648;2022-08-04T07:30:16;38.50;72.40
15386;DHT22;7791;47.246;9.648;2022-08-04T07:32:45;39.10;71.80
15386;DHT22;7791;47.246;9.648;2022-08-04T07:35:12;38.90;71.90
15386;DHT22;7791;47.246;9.648;2022-08-04T07:37:38;39.50;68.90
15386;DHT22;7791;47.246;9.648;2022-08-04T07:40:04;40.10;66.30
15386;DHT22;7791;47.246;9.648;2022-08-04T07:42:31;40.40;67.50
15386;DHT22;7791;47.246;9.648;2022-08-04T07:45:21;40.20;68.20
15386;DHT22;7791;47.246;9.648;2022-08-04T07:47:49;40.20;66.50
15386;DHT22;7791;47.246;9.648;2022-08-04T07:50:15;39.80;65.80
15386;DHT22;7791;47.246;9.648;2022-08-04T07:52:41;39.60;67.10
15386;DHT22;7791;47.246;9.648;2022-08-04T07:55:07;39.80;67.40
15386;DHT22;7791;47.246;9.648;2022-08-04T07:57:33;40.10;66.00
15386;DHT22;7791;47.246;9.648;2022-08-04T08:00:17;39.60;70.50
15386;DHT22;7791;47.246;9.648;2022-08-04T08:02:44;38.50;67.90
15386;DHT22;7791;47.246;9.648;2022-08-04T08:05:13;38.90;66.10
15386;DHT22;7791;47.246;9.648;2022-08-04T08:07:39;39.70;63.60
15386;DHT22;7791;47.246;9.648;2022-08-04T08:10:11;40.00;62.80
15386;DHT22;7791;47.246;9.648;2022-08-04T08:12:37;38.70;67.60
15386;DHT22;7791;47.246;9.648;2022-08-04T08:18:06;37.70;64.90
15386;DHT22;7791;47.246;9.648;2022-08-04T08:20:33;39.00;65.60
15386;DHT22;7791;47.246;9.648;2022-08-04T08:23:00;39.00;66.70
15386;DHT22;7791;47.246;9.648;2022-08-04T08:25:26;38.20;67.90
15386;DHT22;7791;47.246;9.648;2022-08-04T08:27:54;38.30;67.80
15386;DHT22;7791;47.246;9.648;2022-08-04T08:30:19;38.30;68.00
15386;DHT22;7791;47.246;9.648;2022-08-04T08:32:45;38.70;68.10
15386;DHT22;7791;47.246;9.648;2022-08-04T08:35:11;39.20;68.20
15386;DHT22;7791;47.246;9.648;2022-08-04T08:37:45;38.70;67.20
15386;DHT22;7791;47.246;9.648;2022-08-04T08:40:23;38.20;73.00
15386;DHT22;7791;47.246;9.648;2022-08-04T08:43:15;37.80;71.90
15386;DHT22;7791;47.246;9.648;2022-08-04T08:46:20;37.70;69.50
15386;DHT22;7791;47.246;9.648;2022-08-04T08:49:01;37.40;73.00
15386;DHT22;7791;47.246;9.648;2022-08-04T08:51:47;37.40;70.00
15386;DHT22;7791;47.246;9.648;2022-08-04T08:54:46;36.90;69.70
15386;DHT22;7791;47.246;9.648;2022-08-04T08:57:36;36.40;70.50
15386;DHT22;7791;47.246;9.648;2022-08-04T09:00:10;35.70;71.00
15386;DHT22;7791;47.246;9.648;2022-08-04T09:03:08;36.10;70.00
15386;DHT22;7791;47.246;9.648;2022-08-04T09:05:47;36.00;74.00
15386;DHT22;7791;47.246;9.648;2022-08-04T09:08:26;35.90;72.50
15386;DHT22;7791;47.246;9.648;2022-08-04T09:11:01;35.90;73.70
15386;DHT22;7791;47.246;9.648;2022-08-04T09:13:35;35.80;74.90
15386;DHT22;7791;47.246;9.648;2022-08-04T09:19:11;36.20;73.10
15386;DHT22;7791;47.246;9.648;2022-08-04T09:21:52;35.90;73.20
15386;DHT22;7791;47.246;9.648;2022-08-04T09:24:29;36.00;75.20
15386;DHT22;7791;47.246;9.648;2022-08-04T09:27:02;36.20;72.60
15386;DHT22;7791;47.246;9.648;2022-08-04T09:29:56;35.60;74.90
15386;DHT22;7791;47.246;9.648;2022-08-04T09:32:32;35.60;72.50
15386;DHT22;7791;47.246;9.648;2022-08-04T09:35:09;35.50;74.00
15386;DHT22;7791;47.246;9.648;2022-08-04T09:37:41;36.10;73.60
15386;DHT22;7791;47.246;9.648;2022-08-04T09:40:19;36.60;71.80
15386;DHT22;7791;47.246;9.648;2022-08-04T09:42:51;37.20;69.70
15386;DHT22;7791;47.246;9.648;2022-08-04T09:45:26;37.20;71.80
15386;DHT22;7791;47.246;9.648;2022-08-04T09:47:56;37.10;70.30
15386;DHT22;7791;47.246;9.648;2022-08-04T09:50:31;36.90;69.90
15386;DHT22;7791;47.246;9.648;2022-08-04T09:53:09;36.80;69.50
15386;DHT22;7791;47.246;9.648;2022-08-04T09:55:45;36.90;74.20
15386;DHT22;7791;47.246;9.648;2022-08-04T09:58:20;37.00;69.20
15386;DHT22;7791;47.246;9.648;2022-08-04T10:01:00;36.80;70.80
15386;DHT22;7791;47.246;9.648;2022-08-04T10:03:28;37.20;73.20
15386;DHT22;7791;47.246;9.648;2022-08-04T10:06:12;37.40;70.50
15386;DHT22;7791;47.246;9.648;2022-08-04T10:08:56;37.40;72.50
15386;DHT22;7791;47.246;9.648;2022-08-04T10:11:36;37.50;71.10
15386;DHT22;7791;47.246;9.648;2022-08-04T10:14:12;37.40;70.80
15386;DHT22;7791;47.246;9.648;2022-08-04T10:16:50;37.40;73.10
15386;DHT22;7791;47.246;9.648;2022-08-04T10:19:24;37.60;71.00
15386;DHT22;7791;47.246;9.648;2022-08-04T10:21:58;37.20;71.30
15386;DHT22;7791;47.246;9.648;2022-08-04T10:24:35;37.00;72.50
15386;DHT22;7791;47.246;9.648;2022-08-04T10:27:08;36.70;72.10
15386;DHT22;7791;47.246;9.648;2022-08-04T10:32:34;37.00;74.90
15386;DHT22;7791;47.246;9.648;2022-08-04T10:35:08;36.90;72.90
15386;DHT22;7791;47.246;9.648;2022-08-04T10:37:40;36.50;73.50
15386;DHT22;7791;47.246;9.648;2022-08-04T10:40:13;36.60;76.70
15386;DHT22;7791;47.246;9.648;2022-08-04T10:42:49;36.80;73.00
15386;DHT22;7791;47.246;9.648;2022-08-04T10:51:38;37.40;71.50
15386;DHT22;7791;47.246;9.648;2022-08-04T10:54:09;37.80;70.40
15386;DHT22;7791;47.246;9.648;2022-08-04T10:56:39;38.00;69.70
15386;DHT22;7791;47.246;9.648;2022-08-04T10:59:09;37.90;69.00
15386;DHT22;7791;47.246;9.648;2022-08-04T11:04:47;37.90;71.40
15386;DHT22;7791;47.246;9.648;2022-08-04T11:07:16;37.90;70.10
15386;DHT22;7791;47.246;9.648;2022-08-04T11:09:43;38.40;71.30
15386;DHT22;7791;47.246;9.648;2022-08-04T11:12:13;38.60;71.20
15386;DHT22;7791;47.246;9.648;2022-08-04T11:14:43;38.40;67.00
15386;DHT22;7791;47.246;9.648;2022-08-04T11:17:17;38.40;67.20
15386;DHT22;7791;47.246;9.648;2022-08-04T11:19:47;38.80;69.20
15386;DHT22;7791;47.246;9.648;2022-08-04T11:22:22;38.70;66.50
15386;DHT22;7791;47.246;9.648;2022-08-04T11:24:52;38.80;68.00
15386;DHT22;7791;47.246;9.648;2022-08-04T11:27:27;39.20;67.90
15386;DHT22;7791;47.246;9.648;2022-08-04T11:30:02;39.70;67.70
15386;DHT22;7791;47.246;9.648;2022-08-04T11:32:33;39.60;67.30
15386;DHT22;7791;47.246;9.648;2022-08-04T11:35:02;39.30;66.10
15386;DHT22;7791;47.246;9.648;2022-08-04T11:37:40;39.10;66.30
15386;DHT22;7791;47.246;9.648;2022-08-04T11:40:11;39.30;66.60
15386;DHT22;7791;47.246;9.648;2022-08-04T11:42:41;39.40;61.70
15386;DHT22;7791;47.246;9.648;2022-08-04T11:45:14;39.90;61.70
15386;DHT22;7791;47.246;9.648;2022-08-04T11:47:46;40.50;61.50
15386;DHT22;7791;47.246;9.648;2022-08-04T11:50:19;40.70;62.90
15386;DHT22;7791;47.246;9.648;2022-08-04T11:52:47;41.40;64.20
15386;DHT22;7791;47.246;9.648;2022-08-04T11:55:16;41.20;57.00
15386;DHT22;7791;47.246;9.648;2022-08-04T11:57:47;40.90;57.10
15386;DHT22;7791;47.246;9.648;2022-08-04T12:00:15;40.20;57.20
15386;DHT22;7791;47.246;9.648;2022-08-04T12:03:05;40.30;58.50
15386;DHT22;7791;47.246;9.648;2022-08-04T12:05:35;39.50;57.00
15386;DHT22;7791;47.246;9.648;2022-08-04T12:08:25;40.00;58.80
15386;DHT22;7791;47.246;9.648;2022-08-04T12:11:08;40.10;54.30
15386;DHT22;7791;47.246;9.648;2022-08-04T12:13:43;40.50;56.00
15386;DHT22;7791;47.246;9.648;2022-08-04T12:16:14;40.30;56.60
15386;DHT22;7791;47.246;9.648;2022-08-04T12:18:46;40.20;56.20
15386;DHT22;7791;47.246;9.648;2022-08-04T12:21:22;40.10;55.60
15386;DHT22;7791;47.246;9.648;2022-08-04T12:23:53;39.20;56.70
15386;DHT22;7791;47.246;9.648;2022-08-04T12:26:24;38.70;58.50
15386;DHT22;7791;47.246;9.648;2022-08-04T12:28:58;38.70;55.60
15386;DHT22;7791;47.246;9.648;2022-08-04T12:31:26;38.60;57.10
15386;DHT22;7791;47.246;9.648;2022-08-04T12:33:58;38.70;55.80
15386;DHT22;7791;47.246;9.648;2022-08-04T12:36:30;38.70;56.10
15386;DHT22;7791;47.246;9.648;2022-08-04T12:39:05;38.60;57.20
15386;DHT22;7791;47.246;9.648;2022-08-04T12:41:38;39.00;58.60
15386;DHT22;7791;47.246;9.648;2022-08-04T12:44:08;38.80;57.00
15386;DHT22;7791;47.246;9.648;2022-08-04T12:46:54;38.80;55.60
15386;DHT22;7791;47.246;9.648;2022-08-04T12:49:22;39.10;60.10
15386;DHT22;7791;47.246;9.648;2022-08-04T12:51:49;39.50;58.20
15386;DHT22;7791;47.246;9.648;2022-08-04T12:54:22;38.80;58.80
15386;DHT22;7791;47.246;9.648;2022-08-04T12:56:50;38.70;55.40
15386;DHT22;7791;47.246;9.648;2022-08-04T12:59:17;38.20;57.10
15386;DHT22;7791;47.246;9.648;2022-08-04T13:01:46;38.10;58.50
15386;DHT22;7791;47.246;9.648;2022-08-04T13:04:17;38.20;60.70
15386;DHT22;7791;47.246;9.648;2022-08-04T13:06:52;38.60;58.00
15386;DHT22;7791;47.246;9.648;2022-08-04T13:09:31;38.40;57.70
15386;DHT22;7791;47.246;9.648;2022-08-04T13:12:17;38.60;58.30
15386;DHT22;7791;47.246;9.648;2022-08-04T13:14:49;39.10;56.60
15386;DHT22;7791;47.246;9.648;2022-08-04T13:17:16;39.10;57.70
15386;DHT22;7791;47.246;9.648;2022-08-04T13:19:47;39.40;54.00
15386;DHT22;7791;47.246;9.648;2022-08-04T13:22:23;40.10;55.70
15386;DHT22;7791;47.246;9.648;2022-08-04T13:24:50;40.70;54.30
15386;DHT22;7791;47.246;9.648;2022-08-04T13:27:17;39.90;54.80
15386;DHT22;7791;47.246;9.648;2022-08-04T13:29:45;38.70;55.20
15386;DHT22;7791;47.246;9.648;2022-08-04T13:32:15;38.60;55.30
15386;DHT22;7791;47.246;9.648;2022-08-04T13:34:42;38.40;55.50
15386;DHT22;7791;47.246;9.648;2022-08-04T13:37:08;38.70;56.10
15386;DHT22;7791;47.246;9.648;2022-08-04T13:39:35;38.40;53.90
15386;DHT22;7791;47.246;9.648;2022-08-04T13:42:09;38.20;56.90
15386;DHT22;7791;47.246;9.648;2022-08-04T13:44:37;38.70;56.10
15386;DHT22;7791;47.246;9.648;2022-08-04T13:47:06;39.00;54.70
15386;DHT22;7791;47.246;9.648;2022-08-04T13:49:33;39.50;55.90
15386;DHT22;7791;47.246;9.648;2022-08-04T13:52:00;39.40;55.30
15386;DHT22;7791;47.246;9.648;2022-08-04T13:54:34;39.20;53.00
15386;DHT22;7791;47.246;9.648;2022-08-04T13:57:05;40.10;54.60
15386;DHT22;7791;47.246;9.648;2022-08-04T13:59:36;40.00;54.00
15386;DHT22;7791;47.246;9.648;2022-08-04T14:02:05;39.30;54.50
15386;DHT22;7791;47.246;9.648;2022-08-04T14:05:00;38.80;55.70
15386;DHT22;7791;47.246;9.648;2022-08-04T14:07:29;38.90;54.40
15386;DHT22;7791;47.246;9.648;2022-08-04T14:09:56;38.50;56.80
15386;DHT22;7791;47.246;9.648;2022-08-04T14:12:23;39.10;55.00
15386;DHT22;7791;47.246;9.648;2022-08-04T14:14:51;38.90;54.10
15386;DHT22;7791;47.246;9.648;2022-08-04T14:17:23;38.30;54.00
15386;DHT22;7791;47.246;9.648;2022-08-04T14:19:56;38.50;55.20
15386;DHT22;7791;47.246;9.648;2022-08-04T14:22:30;38.40;55.80
15386;DHT22;7791;47.246;9.648;2022-08-04T14:24:57;38.60;54.60
15386;DHT22;7791;47.246;9.648;2022-08-04T14:27:27;39.30;53.70
15386;DHT22;7791;47.246;9.648;2022-08-04T14:29:53;39.90;54.30
15386;DHT22;7791;47.246;9.648;2022-08-04T14:32:19;40.50;53.10
15386;DHT22;7791;47.246;9.648;2022-08-04T14:35:09;41.10;51.70
15386;DHT22;7791;47.246;9.648;2022-08-04T14:37:35;40.20;54.10
15386;DHT22;7791;47.246;9.648;2022-08-04T14:40:01;39.50;54.60
15386;DHT22;7791;47.246;9.648;2022-08-04T14:45:34;39.10;55.90
15386;DHT22;7791;47.246;9.648;2022-08-04T14:48:23;38.40;56.50
15386;DHT22;7791;47.246;9.648;2022-08-04T14:50:50;38.30;54.60
15386;DHT22;7791;47.246;9.648;2022-08-04T14:53:18;38.50;56.80
15386;DHT22;7791;47.246;9.648;2022-08-04T14:55:47;38.40;55.90
15386;DHT22;7791;47.246;9.648;2022-08-04T14:58:17;38.00;55.90
15386;DHT22;7791;47.246;9.648;2022-08-04T15:00:45;36.90;58.30
15386;DHT22;7791;47.246;9.648;2022-08-04T15:03:11;36.60;59.20
15386;DHT22;7791;47.246;9.648;2022-08-04T15:05:39;36.60;56.80
15386;DHT22;7791;47.246;9.648;2022-08-04T15:08:06;37.40;56.80
15386;DHT22;7791;47.246;9.648;2022-08-04T15:10:32;37.80;56.70
15386;DHT22;7791;47.246;9.648;2022-08-04T15:12:58;37.90;54.70
15386;DHT22;7791;47.246;9.648;2022-08-04T15:15:24;37.90;57.60
15386;DHT22;7791;47.246;9.648;2022-08-04T15:17:52;37.90;57.70
15386;DHT22;7791;47.246;9.648;2022-08-04T15:20:18;38.00;56.70
15386;DHT22;7791;47.246;9.648;2022-08-04T15:22:44;38.50;56.30
15386;DHT22;7791;47.246;9.648;2022-08-04T15:25:11;38.30;56.50
15386;DHT22;7791;47.246;9.648;2022-08-04T15:27:38;38.10;55.70
15386;DHT22;7791;47.246;9.648;2022-08-04T15:30:06;37.70;56.20
15386;DHT22;7791;47.246;9.648;2022-08-04T15:32:34;37.70;57.20
15386;DHT22;7791;47.246;9.648;2022-08-04T15:35:04;38.00;57.80
15386;DHT22;7791;47.246;9.648;2022-08-04T15:37:44;37.80;56.00
15386;DHT22;7791;47.246;9.648;2022-08-04T15:40:13;37.90;58.40
15386;DHT22;7791;47.246;9.648;2022-08-04T15:42:45;38.10;58.10
15386;DHT22;7791;47.246;9.648;2022-08-04T15:45:19;37.90;57.70
15386;DHT22;7791;47.246;9.648;2022-08-04T15:51:05;37.50;57.40
15386;DHT22;7791;47.246;9.648;2022-08-04T15:53:36;37.10;57.40
15386;DHT22;7791;47.246;9.648;2022-08-04T15:56:42;36.40;59.30
15386;DHT22;7791;47.246;9.648;2022-08-04T15:59:08;35.90;59.60
15386;DHT22;7791;47.246;9.648;2022-08-04T16:01:34;35.70;62.50
15386;DHT22;7791;47.246;9.648;2022-08-04T16:10:35;35.10;61.70
15386;DHT22;7791;47.246;9.648;2022-08-04T16:13:04;34.90;61.70
15386;DHT22;7791;47.246;9.648;2022-08-04T16:15:39;34.80;64.10
15386;DHT22;7791;47.246;9.648;2022-08-04T16:18:06;34.80;63.20
15386;DHT22;7791;47.246;9.648;2022-08-04T16:20:32;34.70;64.40
15386;DHT22;7791;47.246;9.648;2022-08-04T16:23:05;34.70;61.10
15386;DHT22;7791;47.246;9.648;2022-08-04T16:25:44;34.70;64.30
15386;DHT22;7791;47.246;9.648;2022-08-04T16:28:38;34.70;68.30
15386;DHT22;7791;47.246;9.648;2022-08-04T16:31:05;34.40;70.50
15386;DHT22;7791;47.246;9.648;2022-08-04T16:33:31;33.80;70.30
15386;DHT22;7791;47.246;9.648;2022-08-04T16:45:42;33.20;76.70
15386;DHT22;7791;47.246;9.648;2022-08-04T16:48:09;33.20;77.60
15386;DHT22;7791;47.246;9.648;2022-08-04T16:50:45;33.00;84.10
15386;DHT22;7791;47.246;9.648;2022-08-04T16:53:11;32.90;87.50
15386;DHT22;7791;47.246;9.648;2022-08-04T16:55:37;32.60;79.60
15386;DHT22;7791;47.246;9.648;2022-08-04T16:58:03;32.60;78.40
15386;DHT22;7791;47.246;9.648;2022-08-04T17:00:32;32.30;84.80
15386;DHT22;7791;47.246;9.648;2022-08-04T17:03:02;32.40;82.50
15386;DHT22;7791;47.246;9.648;2022-08-04T17:06:06;32.40;88.00
15386;DHT22;7791;47.246;9.648;2022-08-04T17:08:31;32.30;87.50
15386;DHT22;7791;47.246;9.648;2022-08-04T17:10:57;32.10;91.40
15386;DHT22;7791;47.246;9.648;2022-08-04T17:13:25;31.50;91.70
15386;DHT22;7791;47.246;9.648;2022-08-04T17:15:53;31.10;84.50
15386;DHT22;7791;47.246;9.648;2022-08-04T17:18:22;31.10;88.00
15386;DHT22;7791;47.246;9.648;2022-08-04T17:20:48;31.00;90.10
15386;DHT22;7791;47.246;9.648;2022-08-04T17:23:30;30.70;87.00
15386;DHT22;7791;47.246;9.648;2022-08-04T17:25:57;30.60;90.90
15386;DHT22;7791;47.246;9.648;2022-08-04T17:28:23;30.40;89.40
15386;DHT22;7791;47.246;9.648;2022-08-04T17:30:49;30.10;90.50
15386;DHT22;7791;47.246;9.648;2022-08-04T17:33:15;30.00;90.50
15386;DHT22;7791;47.246;9.648;2022-08-04T17:35:42;29.80;91.70
15386;DHT22;7791;47.246;9.648;2022-08-04T17:38:09;29.80;91.30